createdAt,value
2023-02-14T00:01:11.400Z,30.08
2023-02-14T00:03:39.332Z,29.58
2023-02-14T00:06:12.305Z,28.80
2023-02-14T00:08:41.122Z,25.83
2023-02-14T00:11:10.861Z,32.22
2023-02-14T00:13:38.316Z,26.67
2023-02-14T00:16:06.061Z,29.00
2023-02-14T00:18:51.913Z,26.52
2023-02-14T00:21:20.303Z,33.33
2023-02-14T00:23:47.387Z,30.40
2023-02-14T00:26:15.372Z,31.27
2023-02-14T00:28:43.163Z,26.62
2023-02-14T00:31:10.644Z,28.70
2023-02-14T00:33:38.108Z,22.67
2023-02-14T00:36:10.106Z,19.75
2023-02-14T00:38:37.240Z,23.55
2023-02-14T00:41:05.063Z,23.50
2023-02-14T00:43:32.464Z,22.17
2023-02-14T00:45:59.597Z,22.37
2023-02-14T00:48:26.929Z,24.05
2023-02-14T00:50:54.788Z,22.95
2023-02-14T00:53:21.874Z,22.42
2023-02-14T00:55:50.227Z,18.20
2023-02-14T00:58:17.655Z,25.65
2023-02-14T01:00:44.785Z,20.05
2023-02-14T01:03:11.889Z,18.85
2023-02-14T01:05:40.978Z,20.92
2023-02-14T01:08:08.051Z,23.67
2023-02-14T01:10:36.951Z,21.05
2023-02-14T01:13:04.448Z,21.20
2023-02-14T01:15:32.217Z,21.92
2023-02-14T01:18:00.135Z,17.67
2023-02-14T01:20:27.641Z,22.42
2023-02-14T01:22:54.841Z,19.80
2023-02-14T01:25:21.929Z,18.02
2023-02-14T01:27:49.332Z,21.95
2023-02-14T01:30:16.643Z,21.90
2023-02-14T01:32:43.745Z,18.17
2023-02-14T01:35:11.916Z,23.35
2023-02-14T01:37:39.332Z,22.58
2023-02-14T01:40:08.476Z,17.95
2023-02-14T01:42:36.914Z,21.48
2023-02-14T01:45:19.091Z,18.90
2023-02-14T01:47:49.831Z,20.27
2023-02-14T01:50:24.229Z,19.80
2023-02-14T01:52:56.149Z,22.40
2023-02-14T01:55:25.493Z,22.42
2023-02-14T01:57:59.519Z,21.05
2023-02-14T02:00:45.494Z,23.02
2023-02-14T02:03:14.233Z,18.15
2023-02-14T02:05:46.853Z,18.83
2023-02-14T02:08:15.127Z,23.35
2023-02-14T02:10:42.998Z,21.30
2023-02-14T02:13:17.195Z,26.67
2023-02-14T02:15:59.300Z,23.83
2023-02-14T02:18:36.662Z,18.48
2023-02-14T02:21:20.089Z,19.17
2023-02-14T02:24:16.109Z,22.37
2023-02-14T02:26:52.270Z,20.48
2023-02-14T02:29:33.508Z,18.17
2023-02-14T02:32:28.242Z,21.15
2023-02-14T02:37:54.240Z,19.42
2023-02-14T02:40:45.545Z,18.55
2023-02-14T02:43:22.639Z,21.33
2023-02-14T02:46:20.072Z,19.87
2023-02-14T02:49:13.296Z,18.67
2023-02-14T02:52:13.281Z,22.33
2023-02-14T02:54:45.031Z,22.85
2023-02-14T02:57:18.665Z,21.37
2023-02-14T02:59:46.269Z,24.92
2023-02-14T03:02:20.813Z,21.45
2023-02-14T03:04:56.037Z,19.25
2023-02-14T03:07:45.317Z,22.00
2023-02-14T03:10:20.353Z,21.98
2023-02-14T03:13:15.783Z,20.25
2023-02-14T03:15:58.153Z,22.17
2023-02-14T03:18:45.328Z,20.05
2023-02-14T03:21:35.736Z,20.20
2023-02-14T03:24:27.231Z,24.90
2023-02-14T03:27:10.689Z,23.23
2023-02-14T03:29:47.418Z,22.62
2023-02-14T03:32:29.689Z,29.33
2023-02-14T03:35:09.282Z,16.80
2023-02-14T03:37:59.333Z,23.17
2023-02-14T03:40:35.868Z,24.00
2023-02-14T03:43:10.218Z,25.65
2023-02-14T03:45:44.990Z,28.30
2023-02-14T03:50:42.778Z,21.30
2023-02-14T03:53:11.312Z,21.75
2023-02-14T03:55:45.000Z,24.10
2023-02-14T03:58:20.907Z,20.85
2023-02-14T04:00:50.862Z,29.10
2023-02-14T04:03:18.798Z,25.48
2023-02-14T04:05:52.214Z,21.33
2023-02-14T04:08:27.989Z,23.27
2023-02-14T04:10:57.559Z,28.27
2023-02-14T04:13:25.224Z,27.92
2023-02-14T04:15:52.319Z,32.53
2023-02-14T04:18:37.956Z,29.37
2023-02-14T04:21:05.638Z,22.52
2023-02-14T04:23:32.834Z,25.42
2023-02-14T04:25:59.939Z,28.23
2023-02-14T04:28:27.403Z,26.37
2023-02-14T04:30:54.497Z,30.10
2023-02-14T04:33:21.578Z,22.98
2023-02-14T04:35:49.119Z,28.92
2023-02-14T04:38:16.236Z,28.40
2023-02-14T04:40:43.317Z,27.45
2023-02-14T04:43:10.713Z,23.87
2023-02-14T04:45:37.777Z,28.38
2023-02-14T04:48:04.930Z,31.35
2023-02-14T04:50:32.334Z,29.70
2023-02-14T04:52:59.394Z,27.55
2023-02-14T04:55:26.529Z,25.37
2023-02-14T04:57:53.961Z,24.15
2023-02-14T05:00:21.514Z,23.30
2023-02-14T05:02:48.700Z,25.67
2023-02-14T05:05:16.240Z,26.70
2023-02-14T05:07:47.596Z,28.02
2023-02-14T05:10:15.166Z,31.67
2023-02-14T05:12:42.608Z,25.88
2023-02-14T05:15:10.166Z,22.92
2023-02-14T05:17:37.320Z,26.60
2023-02-14T05:20:05.935Z,24.30
2023-02-14T05:22:33.141Z,23.20
2023-02-14T05:25:00.761Z,32.63
2023-02-14T05:27:28.123Z,27.87
2023-02-14T05:29:55.223Z,38.28
2023-02-14T05:32:22.348Z,37.58
2023-02-14T05:34:49.750Z,49.20
2023-02-14T05:37:16.823Z,46.25
2023-02-14T05:39:43.948Z,33.72
2023-02-14T05:42:11.348Z,38.60
2023-02-14T05:44:38.406Z,35.13
2023-02-14T05:47:05.478Z,34.63
2023-02-14T05:49:32.998Z,37.72
2023-02-14T05:52:00.093Z,33.58
2023-02-14T05:54:27.327Z,30.10
2023-02-14T05:56:54.736Z,33.67
2023-02-14T05:59:21.934Z,31.77
2023-02-14T06:01:49.081Z,42.78
2023-02-14T06:04:16.474Z,36.80
2023-02-14T06:06:43.588Z,36.95
2023-02-14T06:09:10.727Z,35.28
2023-02-14T06:11:38.109Z,36.28
2023-02-14T06:14:05.179Z,34.95
2023-02-14T06:16:32.284Z,30.62
2023-02-14T06:18:59.742Z,34.15
2023-02-14T06:21:26.865Z,30.58
2023-02-14T06:23:54.013Z,38.05
2023-02-14T06:26:21.900Z,35.10
2023-02-14T06:28:56.281Z,37.75
2023-02-14T06:31:24.900Z,38.60
2023-02-14T06:33:52.492Z,34.75
2023-02-14T06:36:20.011Z,45.28
2023-02-14T06:38:48.082Z,45.12
2023-02-14T06:41:17.165Z,41.28
2023-02-14T06:43:46.191Z,33.00
2023-02-14T06:46:13.643Z,38.72
2023-02-14T06:48:40.785Z,38.45
2023-02-14T06:51:07.926Z,58.60
2023-02-14T06:53:35.519Z,94.22
2023-02-14T06:56:02.724Z,80.35
2023-02-14T06:58:30.185Z,96.65
2023-02-14T07:00:58.891Z,70.65
2023-02-14T07:03:27.139Z,65.78
2023-02-14T07:05:54.841Z,83.95
2023-02-14T07:08:22.312Z,77.53
2023-02-14T07:10:49.407Z,75.60
2023-02-14T07:13:16.482Z,36.88
2023-02-14T07:15:43.947Z,51.67
2023-02-14T07:18:11.651Z,41.85
2023-02-14T07:20:38.792Z,33.92
2023-02-14T07:23:06.215Z,26.10
2023-02-14T07:25:33.298Z,24.52
2023-02-14T07:28:00.519Z,29.05
2023-02-14T07:30:28.237Z,30.45
2023-02-14T07:32:55.388Z,25.50
2023-02-14T07:35:22.491Z,30.10
2023-02-14T07:37:50.536Z,25.90
2023-02-14T07:40:17.765Z,21.12
2023-02-14T07:42:44.868Z,26.33
2023-02-14T07:45:21.978Z,23.60
2023-02-14T07:47:51.506Z,20.50
2023-02-14T07:50:19.773Z,20.88
2023-02-14T07:52:47.062Z,21.10
2023-02-14T07:55:14.302Z,24.02
2023-02-14T07:57:41.775Z,23.77
2023-02-14T08:00:09.514Z,22.45
2023-02-14T08:02:39.002Z,24.90
2023-02-14T08:05:06.948Z,27.25
2023-02-14T08:07:34.114Z,25.55
2023-02-14T08:10:01.205Z,30.67
2023-02-14T08:12:47.298Z,32.17
2023-02-14T08:15:33.382Z,29.63
2023-02-14T08:18:00.832Z,29.73
2023-02-14T08:20:27.978Z,25.92
2023-02-14T08:22:56.276Z,29.45
2023-02-14T08:25:23.690Z,24.58
2023-02-14T08:27:50.788Z,25.65
2023-02-14T08:30:18.419Z,21.73
2023-02-14T08:32:45.972Z,29.48
2023-02-14T08:35:13.440Z,27.87
2023-02-14T08:37:40.976Z,31.58
2023-02-14T08:40:08.811Z,35.60
2023-02-14T08:42:36.002Z,31.50
2023-02-14T08:45:03.400Z,32.65
2023-02-14T08:47:38.288Z,26.95
2023-02-14T08:50:07.160Z,23.08
2023-02-14T08:52:34.601Z,29.30
2023-02-14T08:55:02.877Z,25.52
2023-02-14T08:57:30.069Z,27.40
2023-02-14T08:59:57.605Z,25.90
2023-02-14T09:02:24.815Z,25.05
2023-02-14T09:04:52.098Z,26.30
2023-02-14T09:07:19.898Z,23.58
2023-02-14T09:09:47.418Z,24.95
2023-02-14T09:12:14.527Z,26.65
2023-02-14T09:14:44.127Z,23.58
2023-02-14T09:17:15.462Z,22.52
2023-02-14T09:19:43.084Z,32.83
2023-02-14T09:22:11.393Z,33.22
2023-02-14T09:24:39.797Z,23.80
2023-02-14T09:27:07.890Z,27.85
2023-02-14T09:29:35.016Z,45.03
2023-02-14T09:32:02.966Z,31.00
2023-02-14T09:34:31.179Z,26.33
2023-02-14T09:37:16.541Z,21.83
2023-02-14T09:39:43.891Z,27.90
2023-02-14T09:42:40.423Z,28.92
2023-02-14T09:45:28.045Z,28.55
2023-02-14T09:48:30.584Z,28.58
2023-02-14T09:51:07.447Z,33.63
2023-02-14T09:54:02.195Z,24.95
2023-02-14T09:56:57.667Z,28.17
2023-02-14T09:59:49.691Z,24.87
2023-02-14T10:02:36.193Z,26.85
2023-02-14T10:05:13.582Z,40.28
2023-02-14T10:07:52.761Z,23.92
2023-02-14T10:10:40.207Z,22.48
2023-02-14T10:13:22.690Z,23.42
2023-02-14T10:15:58.944Z,26.00
2023-02-14T10:18:41.448Z,52.55
2023-02-14T10:21:09.468Z,31.33
2023-02-14T10:23:46.935Z,25.67
2023-02-14T10:26:34.082Z,27.85
2023-02-14T10:29:04.211Z,20.83
2023-02-14T10:31:51.579Z,32.70
2023-02-14T10:34:27.036Z,27.60
2023-02-14T10:37:03.964Z,24.08
2023-02-14T10:39:57.220Z,27.98
2023-02-14T10:42:46.194Z,20.25
2023-02-14T10:45:28.907Z,23.35
2023-02-14T10:48:16.670Z,25.27
2023-02-14T10:50:58.463Z,22.23
2023-02-14T10:53:49.331Z,22.50
2023-02-14T10:56:41.132Z,25.27
2023-02-14T10:59:23.045Z,24.65
2023-02-14T11:01:52.701Z,27.85
2023-02-14T11:04:22.368Z,25.12
2023-02-14T11:06:50.301Z,25.52
2023-02-14T11:09:18.577Z,26.58
2023-02-14T11:11:53.632Z,21.00
2023-02-14T11:14:22.065Z,21.05
2023-02-14T11:16:51.847Z,26.58
2023-02-14T11:19:27.008Z,21.05
2023-02-14T11:21:59.326Z,27.67
2023-02-14T11:24:29.489Z,22.87
2023-02-14T11:27:01.096Z,27.87
2023-02-14T11:29:33.626Z,34.65
2023-02-14T11:32:14.049Z,61.50
2023-02-14T11:34:44.862Z,26.55
2023-02-14T11:37:27.201Z,24.77
2023-02-14T11:39:56.613Z,27.60
2023-02-14T11:42:35.672Z,21.85
2023-02-14T11:45:05.308Z,34.97
2023-02-14T11:47:37.498Z,34.75
2023-02-14T11:50:22.014Z,32.55
2023-02-14T11:52:51.847Z,40.53
2023-02-14T11:55:26.060Z,50.45
2023-02-14T11:57:54.283Z,26.15
2023-02-14T12:00:23.439Z,26.58
2023-02-14T12:02:51.146Z,26.98
2023-02-14T12:05:43.350Z,25.67
2023-02-14T12:08:11.102Z,27.65
2023-02-14T12:10:39.328Z,29.63
2023-02-14T12:13:09.442Z,23.70
2023-02-14T12:15:37.973Z,16.40
2023-02-14T12:18:30.148Z,29.92
2023-02-14T12:21:06.945Z,24.35
2023-02-14T12:23:42.095Z,21.33
2023-02-14T12:26:25.084Z,21.52
2023-02-14T12:29:17.797Z,28.08
2023-02-14T12:31:46.764Z,43.92
2023-02-14T12:34:15.325Z,37.00
2023-02-14T12:37:14.153Z,21.95
2023-02-14T12:39:54.595Z,19.58
2023-02-14T12:42:35.015Z,21.33
2023-02-14T12:45:28.484Z,22.00
2023-02-14T12:48:04.717Z,16.42
2023-02-14T12:51:26.068Z,19.42
2023-02-14T12:54:08.302Z,18.33
2023-02-14T12:57:01.158Z,18.05
2023-02-14T12:59:50.905Z,26.52
2023-02-14T13:02:18.320Z,19.77
2023-02-14T13:04:52.088Z,25.45
2023-02-14T13:07:45.422Z,17.02
2023-02-14T13:10:43.502Z,34.40
2023-02-14T13:13:29.919Z,20.23
2023-02-14T13:16:19.037Z,25.83
2023-02-14T13:19:06.609Z,19.35
2023-02-14T13:21:35.929Z,17.52
2023-02-14T13:24:23.147Z,16.27
2023-02-14T13:26:54.680Z,18.55
2023-02-14T13:29:24.105Z,42.17
2023-02-14T13:31:57.112Z,17.37
2023-02-14T13:34:34.213Z,17.53
2023-02-14T13:37:03.781Z,24.83
2023-02-14T13:39:38.741Z,18.90
2023-02-14T13:42:07.247Z,37.65
2023-02-14T13:44:49.079Z,89.87
2023-02-14T13:47:18.008Z,22.70
2023-02-14T13:49:57.082Z,16.23
2023-02-14T13:52:47.308Z,19.23
2023-02-14T13:55:19.281Z,16.35
2023-02-14T13:57:48.228Z,15.65
2023-02-14T14:00:21.667Z,14.68
2023-02-14T14:02:56.862Z,16.23
2023-02-14T14:05:47.698Z,15.68
2023-02-14T14:08:21.126Z,16.45
2023-02-14T14:10:55.305Z,12.88
2023-02-14T14:13:40.856Z,17.08
2023-02-14T14:16:20.903Z,26.92
2023-02-14T14:18:48.957Z,25.20
2023-02-14T14:21:59.247Z,19.55
2023-02-14T14:24:32.211Z,16.90
2023-02-14T14:27:15.500Z,15.88
2023-02-14T14:29:47.040Z,14.65
2023-02-14T14:32:28.537Z,34.42
2023-02-14T14:35:20.632Z,15.65
2023-02-14T14:37:55.840Z,16.30
2023-02-14T14:40:36.160Z,14.98
2023-02-14T14:43:12.399Z,14.90
2023-02-14T14:45:42.984Z,18.83
2023-02-14T14:48:17.305Z,15.23
2023-02-14T14:50:46.403Z,13.32
2023-02-14T14:53:21.327Z,17.00
2023-02-14T14:55:52.324Z,13.07
2023-02-14T14:58:38.263Z,14.55
2023-02-14T15:01:08.536Z,17.75
2023-02-14T15:03:35.750Z,19.15
2023-02-14T15:06:22.644Z,19.05
2023-02-14T15:08:51.444Z,15.88
2023-02-14T15:11:38.392Z,14.02
2023-02-14T15:14:09.016Z,16.17
2023-02-14T15:16:47.232Z,13.88
2023-02-14T15:19:17.589Z,17.25
2023-02-14T15:21:45.815Z,42.72
2023-02-14T15:24:15.114Z,31.85
2023-02-14T15:26:47.087Z,23.27
2023-02-14T15:29:26.684Z,21.42
2023-02-14T15:31:54.706Z,25.45
2023-02-14T15:34:30.476Z,62.40
2023-02-14T15:37:03.662Z,22.75
2023-02-14T15:39:40.552Z,24.25
2023-02-14T15:42:32.949Z,18.17
2023-02-14T15:45:22.563Z,41.60
2023-02-14T15:48:03.942Z,32.05
2023-02-14T15:50:36.200Z,22.60
2023-02-14T15:53:28.721Z,32.70
2023-02-14T15:56:12.784Z,42.95
2023-02-14T15:58:40.783Z,58.87
2023-02-14T16:01:08.337Z,47.10
2023-02-14T16:03:39.397Z,49.33
2023-02-14T16:06:07.064Z,40.80
2023-02-14T16:08:36.838Z,54.45
2023-02-14T16:11:15.911Z,55.88
2023-02-14T16:13:46.931Z,93.35
2023-02-14T16:16:15.456Z,90.72
2023-02-14T16:18:54.194Z,93.00
2023-02-14T16:21:29.260Z,99.35
2023-02-14T16:24:05.503Z,98.37
2023-02-14T16:26:34.385Z,79.35
2023-02-14T16:29:05.705Z,68.95
2023-02-14T16:31:34.183Z,45.70
2023-02-14T16:34:01.654Z,39.25
2023-02-14T16:36:30.852Z,44.13
2023-02-14T16:38:58.926Z,41.75
2023-02-14T16:41:27.910Z,43.90
2023-02-14T16:43:55.956Z,43.80
2023-02-14T16:46:26.165Z,50.80
2023-02-14T16:48:53.530Z,38.60
2023-02-14T16:51:28.782Z,55.38
2023-02-14T16:53:58.559Z,33.45
2023-02-14T16:56:33.899Z,34.55
2023-02-14T16:59:01.325Z,50.30
2023-02-14T17:01:28.561Z,50.50
2023-02-14T17:03:55.889Z,97.80
2023-02-14T17:06:27.654Z,35.83
2023-02-14T17:08:56.848Z,40.10
2023-02-14T17:11:25.612Z,50.22
2023-02-14T17:13:53.573Z,45.67
2023-02-14T17:16:21.101Z,39.05
2023-02-14T17:18:53.648Z,42.33
2023-02-14T17:21:22.815Z,48.63
2023-02-14T17:23:50.450Z,54.55
2023-02-14T17:26:20.419Z,60.00
2023-02-14T17:28:47.633Z,49.22
2023-02-14T17:31:15.552Z,55.88
2023-02-14T17:33:42.766Z,45.25
2023-02-14T17:36:12.849Z,46.90
2023-02-14T17:38:43.351Z,40.10
2023-02-14T17:41:15.418Z,38.42
2023-02-14T17:43:44.080Z,43.78
2023-02-14T17:46:14.165Z,45.80
2023-02-14T17:48:45.360Z,43.72
2023-02-14T17:51:14.366Z,37.28
2023-02-14T17:53:41.767Z,48.55
2023-02-14T17:56:14.674Z,43.30
2023-02-14T17:58:42.248Z,49.03
2023-02-14T18:01:11.552Z,36.85
2023-02-14T18:03:39.505Z,41.50
2023-02-14T18:06:07.506Z,42.58
2023-02-14T18:08:37.793Z,39.00
2023-02-14T18:11:06.823Z,43.90
2023-02-14T18:13:34.803Z,35.72
2023-02-14T18:16:03.315Z,43.90
2023-02-14T18:18:31.373Z,49.65
2023-02-14T18:21:00.757Z,46.95
2023-02-14T18:23:28.964Z,39.40
2023-02-14T18:25:58.190Z,48.42
2023-02-14T18:28:26.045Z,43.90
2023-02-14T18:30:53.854Z,44.03
2023-02-14T18:33:21.463Z,35.25
2023-02-14T18:35:48.600Z,42.58
2023-02-14T18:38:15.774Z,39.05
2023-02-14T18:40:43.338Z,45.30
2023-02-14T18:43:10.500Z,41.58
2023-02-14T18:45:38.716Z,42.13
2023-02-14T18:48:06.600Z,39.97
2023-02-14T18:50:33.817Z,37.33
2023-02-14T18:53:01.036Z,43.70
2023-02-14T18:55:28.918Z,59.08
2023-02-14T18:57:56.090Z,42.17
2023-02-14T19:00:23.653Z,47.38
2023-02-14T19:02:51.513Z,45.67
2023-02-14T19:05:18.798Z,47.75
2023-02-14T19:07:46.167Z,47.65
2023-02-14T19:10:13.676Z,42.72
2023-02-14T19:12:40.868Z,50.38
2023-02-14T19:15:08.534Z,52.83
2023-02-14T19:17:37.742Z,52.50
2023-02-14T19:20:08.578Z,62.08
2023-02-14T19:22:39.946Z,47.60
2023-02-14T19:25:08.392Z,56.47
2023-02-14T19:27:36.983Z,81.65
2023-02-14T19:30:05.001Z,52.92
2023-02-14T19:32:32.169Z,55.50
2023-02-14T19:34:59.640Z,61.50
2023-02-14T19:37:26.918Z,55.08
2023-02-14T19:39:54.101Z,58.95
2023-02-14T19:42:21.663Z,50.67
2023-02-14T19:44:48.866Z,65.03
2023-02-14T19:47:30.924Z,61.75
2023-02-14T19:50:01.290Z,57.78
2023-02-14T19:52:28.548Z,63.42
2023-02-14T19:54:56.010Z,61.35
2023-02-14T19:57:23.959Z,64.10
2023-02-14T19:59:51.116Z,61.97
2023-02-14T20:02:19.838Z,76.87
2023-02-14T20:04:47.358Z,84.85
2023-02-14T20:07:14.541Z,64.60
2023-02-14T20:09:41.762Z,62.95
2023-02-14T20:12:09.884Z,58.78
2023-02-14T20:14:50.341Z,62.28
2023-02-14T20:17:19.445Z,61.67
2023-02-14T20:19:46.719Z,71.18
2023-02-14T20:22:13.893Z,55.00
2023-02-14T20:24:41.464Z,55.35
2023-02-14T20:27:08.684Z,56.08
2023-02-14T20:29:38.863Z,59.70
2023-02-14T20:32:06.583Z,51.53
2023-02-14T20:34:33.931Z,40.85
2023-02-14T20:37:01.113Z,51.85
2023-02-14T20:39:31.910Z,48.30
2023-02-14T20:42:00.082Z,47.45
2023-02-14T20:44:27.725Z,51.60
2023-02-14T20:46:56.058Z,54.85
2023-02-14T20:49:24.987Z,55.22
2023-02-14T20:51:52.552Z,57.80
2023-02-14T20:54:21.754Z,55.78
2023-02-14T20:56:50.739Z,56.65
2023-02-14T20:59:24.301Z,63.25
2023-02-14T21:01:51.915Z,52.85
2023-02-14T21:04:19.230Z,46.88
2023-02-14T21:06:48.708Z,49.85
2023-02-14T21:09:18.536Z,51.60
2023-02-14T21:11:45.683Z,51.40
2023-02-14T21:14:13.274Z,57.95
2023-02-14T21:16:40.692Z,61.67
2023-02-14T21:19:07.768Z,78.43
2023-02-14T21:21:36.501Z,74.18
2023-02-14T21:24:07.274Z,45.40
2023-02-14T21:26:34.814Z,48.10
2023-02-14T21:29:02.111Z,49.22
2023-02-14T21:31:30.017Z,50.03
2023-02-14T21:33:58.662Z,44.78
2023-02-14T21:36:27.927Z,46.63
2023-02-14T21:38:58.230Z,41.88
2023-02-14T21:41:27.658Z,48.35
2023-02-14T21:43:58.794Z,51.47
2023-02-14T21:46:30.896Z,42.83
2023-02-14T21:49:18.444Z,48.60
2023-02-14T21:51:46.468Z,48.40
2023-02-14T21:54:13.741Z,55.35
2023-02-14T21:56:44.172Z,46.72
2023-02-14T21:59:11.989Z,50.28
2023-02-14T22:01:41.506Z,56.75
2023-02-14T22:04:11.427Z,44.60
2023-02-14T22:06:40.694Z,43.58
2023-02-14T22:09:08.100Z,41.70
2023-02-14T22:11:35.509Z,42.72
2023-02-14T22:14:02.706Z,40.30
2023-02-14T22:16:30.004Z,45.08
2023-02-14T22:18:57.400Z,46.05
2023-02-14T22:21:26.660Z,44.60
2023-02-14T22:23:55.044Z,39.38
2023-02-14T22:26:23.969Z,41.88
2023-02-14T22:28:54.007Z,40.05
2023-02-14T22:31:21.421Z,44.50
2023-02-14T22:33:49.189Z,49.88
2023-02-14T22:36:16.528Z,45.28
2023-02-14T22:38:43.971Z,43.97
2023-02-14T22:41:16.640Z,45.97
2023-02-14T22:43:44.310Z,39.65
2023-02-14T22:46:23.325Z,39.88
2023-02-14T22:48:51.279Z,38.33
2023-02-14T22:51:32.678Z,46.28
2023-02-14T22:54:05.599Z,55.10
2023-02-14T22:56:35.378Z,55.63
2023-02-14T22:59:05.861Z,51.05
2023-02-14T23:01:34.450Z,45.90
2023-02-14T23:04:03.378Z,43.55
2023-02-14T23:06:32.453Z,40.83
2023-02-14T23:09:00.190Z,52.15
2023-02-14T23:11:29.768Z,51.60
2023-02-14T23:14:16.012Z,46.25
2023-02-14T23:17:03.193Z,47.17
2023-02-14T23:19:51.134Z,46.92
2023-02-14T23:22:22.331Z,46.60
2023-02-14T23:24:51.433Z,43.67
2023-02-14T23:27:25.584Z,46.08
2023-02-14T23:29:52.722Z,40.67
2023-02-14T23:32:20.204Z,42.58
2023-02-14T23:34:47.398Z,42.88
2023-02-14T23:37:14.737Z,44.35
2023-02-14T23:39:42.156Z,41.60
2023-02-14T23:42:11.675Z,39.22
2023-02-14T23:44:38.767Z,32.83
2023-02-14T23:47:08.620Z,37.97
2023-02-14T23:49:37.520Z,35.97
2023-02-14T23:52:06.687Z,36.38
2023-02-14T23:54:34.718Z,37.28
2023-02-14T23:57:02.032Z,36.75
2023-02-14T23:59:29.173Z,44.33
